createdAt,value
2023-10-26T00:00:27.763Z,6.82
2023-10-26T00:02:54.135Z,6.43
2023-10-26T00:05:30.540Z,6.65
2023-10-26T00:07:56.820Z,7.30
2023-10-26T00:10:23.110Z,6.97
2023-10-26T00:12:49.392Z,7.57
2023-10-26T00:15:15.734Z,6.75
2023-10-26T00:17:42.039Z,6.93
2023-10-26T00:20:08.430Z,6.88
2023-10-26T00:22:34.669Z,8.05
2023-10-26T00:25:01.040Z,8.80
2023-10-26T00:27:27.609Z,6.03
2023-10-26T00:29:53.884Z,7.60
2023-10-26T00:32:20.171Z,6.32
2023-10-26T00:34:46.532Z,6.75
2023-10-26T00:37:13.111Z,6.75
2023-10-26T00:39:39.436Z,9.25
2023-10-26T00:42:05.752Z,7.38
2023-10-26T00:44:32.399Z,6.93
2023-10-26T00:46:58.659Z,6.28
2023-10-26T00:49:25.002Z,7.25
2023-10-26T00:51:51.346Z,6.90
2023-10-26T00:54:25.829Z,6.43
2023-10-26T00:56:52.132Z,6.40
2023-10-26T00:59:18.462Z,7.22
2023-10-26T01:01:44.725Z,6.50
2023-10-26T01:04:11.123Z,5.72
2023-10-26T01:06:37.447Z,7.03
2023-10-26T01:09:03.911Z,6.45
2023-10-26T01:11:30.544Z,6.35
2023-10-26T01:13:57.143Z,6.35
2023-10-26T01:16:23.420Z,6.88
2023-10-26T01:18:49.762Z,7.30
2023-10-26T01:21:16.201Z,6.45
2023-10-26T01:23:42.690Z,7.35
2023-10-26T01:26:08.983Z,6.35
2023-10-26T01:28:35.329Z,8.00
2023-10-26T01:31:01.610Z,8.82
2023-10-26T01:33:27.967Z,7.15
2023-10-26T01:35:54.378Z,7.95
2023-10-26T01:38:20.644Z,6.30
2023-10-26T01:40:46.999Z,6.93
2023-10-26T01:43:13.270Z,6.50
2023-10-26T01:45:39.535Z,6.25
2023-10-26T01:48:06.023Z,6.95
2023-10-26T01:50:32.374Z,12.27
2023-10-26T01:52:58.643Z,9.98
2023-10-26T01:55:35.397Z,6.65
2023-10-26T01:58:01.820Z,7.38
2023-10-26T02:00:28.486Z,7.07
2023-10-26T02:02:54.841Z,6.35
2023-10-26T02:05:21.591Z,9.25
2023-10-26T02:07:47.977Z,6.47
2023-10-26T02:10:14.243Z,6.95
2023-10-26T02:12:40.506Z,7.45
2023-10-26T02:15:06.848Z,6.93
2023-10-26T02:17:33.280Z,6.65
2023-10-26T02:19:59.577Z,6.53
2023-10-26T02:22:25.851Z,6.70
2023-10-26T02:24:52.101Z,7.25
2023-10-26T02:27:18.422Z,8.93
2023-10-26T02:29:44.657Z,6.43
2023-10-26T02:32:10.946Z,6.22
2023-10-26T02:34:44.771Z,6.15
2023-10-26T02:37:11.185Z,7.13
2023-10-26T02:39:37.459Z,6.55
2023-10-26T02:42:03.785Z,6.47
2023-10-26T02:44:30.093Z,5.75
2023-10-26T02:46:56.339Z,6.07
2023-10-26T02:49:23.133Z,8.20
2023-10-26T02:51:49.416Z,6.78
2023-10-26T02:54:15.718Z,6.50
2023-10-26T02:56:42.127Z,8.25
2023-10-26T02:59:08.485Z,6.47
2023-10-26T03:01:34.798Z,6.40
2023-10-26T03:04:01.320Z,5.95
2023-10-26T03:06:27.761Z,6.75
2023-10-26T03:08:54.073Z,6.95
2023-10-26T03:11:20.563Z,6.45
2023-10-26T03:13:46.832Z,9.10
2023-10-26T03:16:13.147Z,6.82
2023-10-26T03:18:39.545Z,5.47
2023-10-26T03:21:05.915Z,6.47
2023-10-26T03:23:36.947Z,6.35
2023-10-26T03:26:03.254Z,6.10
2023-10-26T03:28:29.513Z,5.80
2023-10-26T03:30:55.873Z,6.63
2023-10-26T03:33:22.297Z,6.32
2023-10-26T03:35:48.607Z,6.35
2023-10-26T03:38:14.868Z,6.75
2023-10-26T03:40:41.312Z,9.40
2023-10-26T03:43:07.644Z,5.70
2023-10-26T03:45:33.907Z,5.53
2023-10-26T03:48:00.217Z,6.03
2023-10-26T03:50:26.586Z,7.35
2023-10-26T03:52:52.826Z,7.43
2023-10-26T03:55:19.103Z,6.88
2023-10-26T03:57:45.379Z,7.20
2023-10-26T04:00:11.972Z,6.82
2023-10-26T04:02:38.295Z,8.02
2023-10-26T04:05:04.553Z,6.70
2023-10-26T04:07:30.824Z,6.70
2023-10-26T04:09:57.095Z,7.10
2023-10-26T04:12:25.086Z,6.68
2023-10-26T04:14:53.657Z,5.97
2023-10-26T04:17:19.971Z,6.07
2023-10-26T04:19:46.295Z,6.30
2023-10-26T04:22:12.538Z,7.78
2023-10-26T04:24:38.865Z,7.55
2023-10-26T04:27:05.214Z,6.72
2023-10-26T04:29:31.656Z,7.07
2023-10-26T04:31:57.981Z,7.25
2023-10-26T04:34:24.390Z,6.45
2023-10-26T04:36:50.688Z,7.22
2023-10-26T04:39:16.999Z,7.25
2023-10-26T04:41:43.631Z,7.40
2023-10-26T04:44:09.884Z,6.75
2023-10-26T04:46:45.353Z,6.00
2023-10-26T04:49:11.642Z,6.20
2023-10-26T04:51:37.965Z,6.15
2023-10-26T04:54:04.384Z,6.88
2023-10-26T04:56:30.901Z,6.65
2023-10-26T04:58:57.221Z,7.15
2023-10-26T05:01:23.538Z,6.28
2023-10-26T05:03:49.891Z,6.20
2023-10-26T05:06:16.341Z,6.82
2023-10-26T05:08:42.672Z,8.18
2023-10-26T05:11:14.134Z,5.78
2023-10-26T05:13:40.556Z,5.78
2023-10-26T05:16:06.862Z,6.82
2023-10-26T05:18:33.616Z,5.90
2023-10-26T05:21:00.016Z,6.05
2023-10-26T05:23:26.755Z,6.05
2023-10-26T05:25:53.171Z,6.82
2023-10-26T05:28:19.494Z,6.57
2023-10-26T05:30:45.766Z,6.38
2023-10-26T05:33:12.233Z,6.43
2023-10-26T05:35:38.556Z,6.40
2023-10-26T05:38:04.849Z,6.50
2023-10-26T05:40:31.110Z,7.25
2023-10-26T05:42:57.397Z,6.90
2023-10-26T05:45:23.777Z,7.47
2023-10-26T05:47:50.118Z,6.70
2023-10-26T05:50:16.515Z,6.45
2023-10-26T05:52:43.137Z,8.50
2023-10-26T05:55:18.592Z,6.50
2023-10-26T05:57:44.891Z,7.70
2023-10-26T06:00:11.267Z,6.45
2023-10-26T06:02:43.199Z,7.70
2023-10-26T06:05:09.506Z,6.85
2023-10-26T06:07:35.805Z,7.22
2023-10-26T06:10:02.299Z,7.18
2023-10-26T06:12:28.721Z,6.75
2023-10-26T06:14:55.084Z,7.13
2023-10-26T06:17:21.359Z,7.60
2023-10-26T06:19:47.839Z,8.23
2023-10-26T06:22:14.120Z,7.60
2023-10-26T06:24:40.461Z,7.20
2023-10-26T06:27:06.798Z,6.43
2023-10-26T06:29:33.054Z,6.80
2023-10-26T06:31:59.333Z,7.45
2023-10-26T06:34:25.724Z,8.07
2023-10-26T06:36:51.977Z,7.28
2023-10-26T06:39:18.349Z,7.30
2023-10-26T06:41:44.883Z,7.20
2023-10-26T06:44:11.272Z,7.07
2023-10-26T06:46:37.557Z,7.47
2023-10-26T06:49:14.707Z,8.65
2023-10-26T06:51:49.115Z,7.45
2023-10-26T06:54:15.470Z,8.75
2023-10-26T06:56:42.076Z,7.80
2023-10-26T06:59:08.378Z,8.07
2023-10-26T07:02:09.938Z,7.60
2023-10-26T07:04:20.960Z,9.18
2023-10-26T07:06:47.376Z,8.77
2023-10-26T07:09:13.733Z,10.38
2023-10-26T07:11:39.998Z,9.13
2023-10-26T07:14:06.294Z,7.90
2023-10-26T07:16:32.576Z,7.50
2023-10-26T07:18:58.921Z,8.00
2023-10-26T07:21:25.451Z,8.98
2023-10-26T07:23:51.717Z,9.55
2023-10-26T07:26:18.311Z,9.88
2023-10-26T07:28:44.743Z,9.40
2023-10-26T07:31:11.361Z,8.52
2023-10-26T07:33:37.712Z,10.60
2023-10-26T07:36:04.039Z,9.82
2023-10-26T07:38:35.305Z,11.52
2023-10-26T07:41:03.503Z,8.98
2023-10-26T07:43:29.794Z,9.95
2023-10-26T07:45:56.247Z,11.35
2023-10-26T07:48:22.543Z,9.85
2023-10-26T07:50:48.879Z,9.63
2023-10-26T07:53:21.323Z,10.05
2023-10-26T07:55:54.324Z,10.68
2023-10-26T07:58:20.661Z,9.73
2023-10-26T08:00:46.968Z,12.10
2023-10-26T08:03:13.315Z,47.90
2023-10-26T08:05:39.668Z,29.83
2023-10-26T08:08:06.036Z,39.22
2023-10-26T08:10:32.696Z,37.67
2023-10-26T08:12:59.049Z,39.30
2023-10-26T08:16:08.711Z,32.78
2023-10-26T08:18:11.717Z,35.28
2023-10-26T08:20:38.079Z,33.35
2023-10-26T08:23:04.395Z,34.28
2023-10-26T08:25:30.700Z,31.95
2023-10-26T08:27:57.029Z,36.10
2023-10-26T08:30:23.329Z,35.33
2023-10-26T08:32:49.742Z,36.58
2023-10-26T08:35:16.434Z,31.27
2023-10-26T08:37:42.853Z,31.00
2023-10-26T08:40:09.130Z,35.17
2023-10-26T08:42:35.467Z,30.40
2023-10-26T08:45:01.721Z,35.72
2023-10-26T08:47:28.310Z,36.58
2023-10-26T08:50:14.790Z,31.08
2023-10-26T08:52:41.333Z,34.20
2023-10-26T08:55:07.649Z,31.77
2023-10-26T08:57:33.936Z,29.92
2023-10-26T09:00:00.271Z,28.80
2023-10-26T09:02:26.637Z,29.65
2023-10-26T09:04:53.034Z,38.35
2023-10-26T09:07:19.507Z,27.83
2023-10-26T09:09:45.783Z,30.40
2023-10-26T09:12:12.059Z,27.60
2023-10-26T09:14:38.338Z,28.25
2023-10-26T09:17:04.744Z,32.08
2023-10-26T09:19:31.260Z,31.00
2023-10-26T09:21:57.736Z,28.77
2023-10-26T09:24:24.077Z,25.70
2023-10-26T09:26:50.514Z,26.27
2023-10-26T09:29:16.825Z,27.00
2023-10-26T09:31:43.246Z,25.67
2023-10-26T09:34:09.596Z,30.38
2023-10-26T09:36:35.894Z,30.35
2023-10-26T09:39:02.486Z,29.35
2023-10-26T09:41:29.057Z,26.45
2023-10-26T09:43:55.352Z,25.42
2023-10-26T09:46:21.960Z,26.30
2023-10-26T09:48:48.459Z,28.50
2023-10-26T09:51:14.915Z,25.02
2023-10-26T09:53:42.465Z,24.52
2023-10-26T09:56:10.584Z,22.65
2023-10-26T09:58:36.913Z,24.08
2023-10-26T10:01:03.290Z,27.08
2023-10-26T10:03:29.614Z,24.88
2023-10-26T10:05:55.896Z,29.55
2023-10-26T10:08:22.205Z,27.20
2023-10-26T10:10:48.523Z,26.33
2023-10-26T10:13:14.818Z,23.55
2023-10-26T10:15:43.296Z,25.90
2023-10-26T10:18:09.932Z,30.42
2023-10-26T10:20:36.243Z,25.05
2023-10-26T10:23:02.502Z,26.35
2023-10-26T10:25:28.876Z,24.02
2023-10-26T10:27:55.187Z,23.50
2023-10-26T10:30:21.589Z,24.95
2023-10-26T10:32:48.138Z,25.10
2023-10-26T10:35:14.603Z,20.00
2023-10-26T10:37:40.888Z,24.92
2023-10-26T10:40:07.532Z,22.85
2023-10-26T10:42:33.800Z,23.38
2023-10-26T10:45:00.224Z,23.45
2023-10-26T10:47:26.434Z,22.88
2023-10-26T10:49:53.016Z,22.77
2023-10-26T10:52:19.626Z,23.98
2023-10-26T10:54:56.667Z,20.95
2023-10-26T10:57:31.583Z,24.23
2023-10-26T10:59:57.972Z,26.25
2023-10-26T11:02:24.490Z,22.52
2023-10-26T11:07:17.767Z,21.98
2023-10-26T11:09:44.081Z,23.77
2023-10-26T11:12:10.724Z,19.77
2023-10-26T11:14:36.994Z,20.65
2023-10-26T11:17:03.298Z,21.85
2023-10-26T11:19:29.596Z,18.98
2023-10-26T11:21:55.942Z,20.30
2023-10-26T11:24:22.215Z,22.98
2023-10-26T11:26:48.557Z,18.83
2023-10-26T11:29:14.874Z,19.75
2023-10-26T11:31:41.318Z,19.83
2023-10-26T11:34:07.618Z,19.70
2023-10-26T11:36:33.957Z,20.50
2023-10-26T11:39:00.873Z,21.23
2023-10-26T11:41:27.488Z,19.83
2023-10-26T11:43:53.740Z,19.90
2023-10-26T11:46:20.558Z,18.83
2023-10-26T11:48:46.979Z,22.33
2023-10-26T11:51:13.251Z,19.40
2023-10-26T11:53:39.509Z,19.05
2023-10-26T11:56:05.786Z,18.23
2023-10-26T11:58:32.115Z,20.17
2023-10-26T12:00:58.383Z,17.80
2023-10-26T12:03:24.706Z,19.17
2023-10-26T12:05:51.035Z,17.65
2023-10-26T12:08:17.308Z,18.35
2023-10-26T12:10:43.622Z,20.63
2023-10-26T12:13:09.927Z,19.60
2023-10-26T12:15:36.335Z,16.67
2023-10-26T12:18:02.673Z,18.67
2023-10-26T12:20:29.009Z,17.63
2023-10-26T12:22:55.302Z,13.02
2023-10-26T12:25:21.605Z,16.70
2023-10-26T12:28:21.890Z,15.13
2023-10-26T12:30:34.326Z,15.70
2023-10-26T12:33:01.057Z,17.27
2023-10-26T12:35:27.346Z,16.50
2023-10-26T12:37:53.640Z,19.00
2023-10-26T12:40:20.019Z,19.67
2023-10-26T12:42:46.898Z,18.00
2023-10-26T12:45:13.406Z,18.17
2023-10-26T12:47:39.736Z,17.35
2023-10-26T12:50:06.030Z,19.42
2023-10-26T12:52:32.283Z,16.17
2023-10-26T12:54:58.717Z,18.73
2023-10-26T12:57:25.012Z,15.55
2023-10-26T12:59:51.321Z,16.35
2023-10-26T13:02:17.616Z,18.75
2023-10-26T13:04:44.147Z,13.68
2023-10-26T13:07:10.576Z,16.52
2023-10-26T13:09:36.864Z,15.80
2023-10-26T13:12:03.164Z,15.85
2023-10-26T13:14:29.470Z,16.25
2023-10-26T13:16:57.843Z,15.70
2023-10-26T13:19:24.971Z,16.33
2023-10-26T13:21:51.264Z,17.33
2023-10-26T13:24:17.772Z,15.60
2023-10-26T13:26:44.157Z,17.10
2023-10-26T13:29:10.777Z,16.33
2023-10-26T13:31:37.090Z,18.00
2023-10-26T13:34:03.426Z,20.48
2023-10-26T13:36:29.755Z,15.85
2023-10-26T13:38:57.407Z,18.52
2023-10-26T13:41:24.233Z,19.52
2023-10-26T13:43:50.500Z,15.98
2023-10-26T13:46:16.829Z,15.82
2023-10-26T13:48:43.110Z,14.35
2023-10-26T13:51:09.358Z,17.45
2023-10-26T13:53:35.799Z,15.63
2023-10-26T13:56:02.116Z,13.85
2023-10-26T13:58:28.394Z,17.00
2023-10-26T14:00:54.960Z,13.30
2023-10-26T14:03:21.258Z,13.88
2023-10-26T14:05:47.545Z,17.00
2023-10-26T14:08:13.814Z,14.77
2023-10-26T14:10:40.072Z,13.05
2023-10-26T14:13:06.425Z,14.35
2023-10-26T14:15:32.776Z,15.32
2023-10-26T14:17:59.181Z,14.30
2023-10-26T14:20:25.579Z,13.27
2023-10-26T14:22:51.852Z,14.52
2023-10-26T14:25:18.172Z,13.07
2023-10-26T14:27:44.752Z,13.77
2023-10-26T14:30:11.112Z,12.80
2023-10-26T14:32:37.405Z,13.70
2023-10-26T14:35:03.757Z,15.50
2023-10-26T14:37:30.000Z,12.68
2023-10-26T14:39:56.335Z,14.82
2023-10-26T14:42:22.674Z,14.57
2023-10-26T14:44:49.017Z,13.73
2023-10-26T14:47:15.344Z,13.38
2023-10-26T14:49:41.641Z,12.10
2023-10-26T14:52:07.962Z,14.05
2023-10-26T14:54:34.270Z,13.55
2023-10-26T14:57:01.524Z,12.77
2023-10-26T14:59:27.795Z,12.90
2023-10-26T15:01:54.170Z,15.75
2023-10-26T15:04:20.761Z,11.63
2023-10-26T15:06:47.050Z,11.52
2023-10-26T15:09:13.323Z,11.60
2023-10-26T15:11:59.657Z,11.82
2023-10-26T15:14:26.099Z,12.23
2023-10-26T15:16:52.582Z,11.35
2023-10-26T15:19:18.908Z,12.57
2023-10-26T15:21:45.203Z,10.60
2023-10-26T15:24:11.785Z,11.98
2023-10-26T15:26:38.040Z,11.88
2023-10-26T15:29:04.316Z,11.82
2023-10-26T15:31:30.630Z,14.30
2023-10-26T15:33:58.751Z,12.20
2023-10-26T15:36:26.285Z,11.77
2023-10-26T15:38:52.564Z,13.43
2023-10-26T15:41:19.039Z,11.50
2023-10-26T15:43:45.356Z,12.27
2023-10-26T15:46:11.806Z,11.88
2023-10-26T15:49:31.820Z,13.02
2023-10-26T15:51:30.737Z,11.68
2023-10-26T15:53:57.187Z,11.40
2023-10-26T15:56:23.530Z,12.45
2023-10-26T15:58:49.798Z,10.98
2023-10-26T16:01:16.095Z,12.95
2023-10-26T16:03:42.475Z,11.90
2023-10-26T16:06:08.957Z,11.52
2023-10-26T16:08:35.275Z,12.93
2023-10-26T16:11:01.514Z,13.60
2023-10-26T16:13:27.908Z,10.85
2023-10-26T16:15:54.396Z,12.10
2023-10-26T16:18:20.869Z,10.48
2023-10-26T16:20:47.167Z,12.13
2023-10-26T16:23:13.605Z,12.95
2023-10-26T16:25:39.981Z,12.43
2023-10-26T16:28:06.254Z,12.00
2023-10-26T16:30:32.583Z,14.25
2023-10-26T16:32:58.968Z,11.60
2023-10-26T16:35:25.232Z,12.98
2023-10-26T16:37:53.973Z,11.23
2023-10-26T16:40:20.458Z,15.25
2023-10-26T16:42:46.728Z,11.32
2023-10-26T16:45:13.156Z,13.85
2023-10-26T16:47:51.995Z,11.73
2023-10-26T16:50:22.077Z,11.52
2023-10-26T16:52:48.403Z,14.15
2023-10-26T16:55:14.662Z,12.18
2023-10-26T16:57:40.931Z,10.48
2023-10-26T17:00:07.179Z,13.13
2023-10-26T17:02:33.442Z,11.15
2023-10-26T17:05:06.645Z,16.95
2023-10-26T17:07:32.933Z,76.05
2023-10-26T17:09:59.270Z,162.65
2023-10-26T17:12:25.586Z,182.05
2023-10-26T17:14:51.948Z,174.70
2023-10-26T17:17:18.481Z,176.73
2023-10-26T17:19:45.038Z,163.90
2023-10-26T17:22:11.517Z,162.40
2023-10-26T17:24:38.025Z,152.15
2023-10-26T17:27:04.307Z,196.05
2023-10-26T17:29:30.581Z,247.20
2023-10-26T17:31:56.862Z,310.65
2023-10-26T17:34:23.219Z,324.88
2023-10-26T17:36:49.825Z,320.05
2023-10-26T17:39:16.167Z,311.50
2023-10-26T17:41:42.470Z,305.40
2023-10-26T17:44:09.047Z,294.80
2023-10-26T17:46:35.401Z,290.75
2023-10-26T17:49:01.929Z,280.08
2023-10-26T17:51:28.438Z,272.25
2023-10-26T17:53:54.725Z,264.83
2023-10-26T17:56:21.128Z,260.27
2023-10-26T17:58:47.756Z,256.13
2023-10-26T18:01:14.069Z,255.65
2023-10-26T18:03:47.737Z,288.90
2023-10-26T18:06:23.997Z,287.05
2023-10-26T18:08:50.408Z,299.52
2023-10-26T18:11:26.753Z,362.90
2023-10-26T18:13:53.399Z,392.52
2023-10-26T18:16:26.600Z,397.38
2023-10-26T18:19:02.926Z,396.58
2023-10-26T18:21:31.824Z,392.05
2023-10-26T18:23:58.094Z,382.75
2023-10-26T18:26:24.382Z,372.85
2023-10-26T18:28:50.766Z,370.73
2023-10-26T18:31:17.886Z,372.30
2023-10-26T18:33:54.188Z,455.63
2023-10-26T18:36:20.638Z,501.58
2023-10-26T18:38:56.872Z,499.92
2023-10-26T18:41:23.279Z,501.90
2023-10-26T18:43:49.561Z,496.33
2023-10-26T18:46:25.902Z,477.48
2023-10-26T18:48:52.332Z,477.98
2023-10-26T18:51:18.698Z,462.92
2023-10-26T18:53:45.009Z,460.13
2023-10-26T18:56:11.283Z,452.77
2023-10-26T18:58:37.566Z,490.95
2023-10-26T19:01:03.930Z,491.25
2023-10-26T19:03:30.418Z,499.27
2023-10-26T19:05:56.978Z,497.35
2023-10-26T19:08:23.340Z,489.88
2023-10-26T19:10:49.698Z,476.30
2023-10-26T19:13:16.244Z,469.70
2023-10-26T19:15:43.013Z,464.00
2023-10-26T19:18:09.429Z,456.73
2023-10-26T19:20:35.841Z,456.38
2023-10-26T19:23:02.125Z,436.83
2023-10-26T19:25:37.726Z,431.88
2023-10-26T19:28:04.032Z,425.88
2023-10-26T19:30:30.360Z,422.08
2023-10-26T19:32:56.658Z,399.48
2023-10-26T19:35:23.068Z,326.08
2023-10-26T19:37:49.322Z,359.05
2023-10-26T19:40:15.894Z,410.42
2023-10-26T19:42:42.227Z,439.77
2023-10-26T19:45:08.575Z,453.08
2023-10-26T19:47:34.934Z,450.85
2023-10-26T19:50:03.372Z,442.70
2023-10-26T19:52:29.879Z,428.35
2023-10-26T19:54:56.470Z,417.25
2023-10-26T19:57:22.815Z,419.85
2023-10-26T19:59:49.089Z,414.08
2023-10-26T20:02:15.369Z,405.70
2023-10-26T20:04:41.680Z,390.73
2023-10-26T20:07:08.022Z,389.27
2023-10-26T20:09:34.566Z,403.58
2023-10-26T20:12:00.851Z,437.50
2023-10-26T20:14:27.104Z,475.65
2023-10-26T20:16:53.454Z,493.05
2023-10-26T20:19:19.768Z,484.55
2023-10-26T20:21:46.106Z,476.02
2023-10-26T20:24:12.654Z,474.40
2023-10-26T20:26:39.000Z,465.33
2023-10-26T20:29:05.279Z,450.08
2023-10-26T20:31:31.770Z,451.35
2023-10-26T20:33:58.054Z,455.73
2023-10-26T20:36:24.536Z,446.20
2023-10-26T20:38:50.863Z,441.83
2023-10-26T20:41:17.294Z,437.55
2023-10-26T20:43:43.713Z,440.35
2023-10-26T20:46:10.003Z,434.85
2023-10-26T20:48:36.380Z,425.80
2023-10-26T20:51:02.883Z,432.55
2023-10-26T20:53:29.121Z,524.50
2023-10-26T20:55:55.488Z,609.08
2023-10-26T20:58:21.867Z,584.83
2023-10-26T21:00:58.206Z,588.30
2023-10-26T21:03:24.487Z,576.25
2023-10-26T21:05:51.157Z,558.85
2023-10-26T21:08:17.406Z,571.03
2023-10-26T21:10:43.708Z,573.58
2023-10-26T21:13:10.085Z,615.72
2023-10-26T21:15:36.516Z,645.80
2023-10-26T21:18:03.215Z,640.40
2023-10-26T21:20:29.509Z,635.78
2023-10-26T21:22:55.762Z,635.88
2023-10-26T21:25:22.401Z,616.65
2023-10-26T21:27:49.041Z,626.88
2023-10-26T21:30:15.350Z,624.30
2023-10-26T21:32:41.753Z,652.05
2023-10-26T21:35:08.053Z,685.95
2023-10-26T21:37:34.714Z,682.60
2023-10-26T21:40:01.068Z,677.97
2023-10-26T21:42:27.386Z,651.55
2023-10-26T21:44:54.024Z,618.50
2023-10-26T21:47:20.331Z,601.28
2023-10-26T21:49:46.721Z,596.08
2023-10-26T21:52:13.066Z,580.80
2023-10-26T21:54:39.453Z,574.30
2023-10-26T21:57:05.843Z,567.15
2023-10-26T21:59:32.137Z,562.90
2023-10-26T22:01:58.420Z,562.70
2023-10-26T22:04:26.600Z,552.75
2023-10-26T22:06:52.943Z,547.50
2023-10-26T22:09:19.216Z,546.80
2023-10-26T22:11:45.448Z,536.72
2023-10-26T22:14:12.166Z,538.53
2023-10-26T22:16:38.512Z,527.78
2023-10-26T22:19:04.857Z,526.13
2023-10-26T22:21:31.307Z,520.50
2023-10-26T22:23:57.738Z,515.17
2023-10-26T22:26:24.008Z,514.03
2023-10-26T22:28:50.371Z,505.38
2023-10-26T22:31:16.630Z,504.98
2023-10-26T22:33:43.076Z,495.73
2023-10-26T22:36:09.390Z,492.13
2023-10-26T22:38:35.638Z,490.35
2023-10-26T22:41:01.977Z,484.00
2023-10-26T22:43:28.299Z,483.67
2023-10-26T22:45:54.607Z,475.58
2023-10-26T22:48:20.869Z,469.58
2023-10-26T22:50:47.211Z,462.80
2023-10-26T22:53:13.639Z,461.27
2023-10-26T22:55:40.061Z,457.30
2023-10-26T22:58:06.546Z,451.05
2023-10-26T23:00:32.870Z,454.75
2023-10-26T23:02:59.325Z,446.23
2023-10-26T23:05:25.581Z,444.42
2023-10-26T23:07:51.898Z,433.38
2023-10-26T23:10:18.494Z,441.70
2023-10-26T23:12:44.855Z,436.10
2023-10-26T23:15:11.110Z,427.73
2023-10-26T23:17:37.476Z,424.80
2023-10-26T23:20:03.762Z,422.08
2023-10-26T23:22:30.013Z,413.88
2023-10-26T23:24:56.356Z,412.65
2023-10-26T23:27:22.970Z,408.70
2023-10-26T23:29:49.312Z,402.65
2023-10-26T23:32:15.556Z,404.88
2023-10-26T23:34:42.156Z,394.27
2023-10-26T23:37:08.499Z,399.05
2023-10-26T23:39:34.811Z,391.60
2023-10-26T23:42:01.100Z,388.05
2023-10-26T23:44:27.368Z,378.33
2023-10-26T23:46:53.681Z,380.52
2023-10-26T23:49:20.011Z,369.45
2023-10-26T23:51:46.487Z,374.25
2023-10-26T23:54:12.763Z,366.48
2023-10-26T23:56:39.048Z,359.35
2023-10-26T23:59:05.509Z,349.73
